sensor_id;sensor_type;location;lat;lon;timestamp;pressure;altitude;pressure_sealevel;temperature;humidity
76853;BME280;65825;52.232;10.566;2023-06-19T00:01:25;100331.41;;;25.91;34.41
76853;BME280;65825;52.232;10.566;2023-06-19T00:03:50;100332.56;;;25.62;35.08
76853;BME280;65825;52.232;10.566;2023-06-19T00:06:15;100325.22;;;25.81;34.85
76853;BME280;65825;52.232;10.566;2023-06-19T00:08:41;100328.72;;;25.64;35.16
76853;BME280;65825;52.232;10.566;2023-06-19T00:11:07;100325.16;;;25.46;35.38
76853;BME280;65825;52.232;10.566;2023-06-19T00:13:33;100333.03;;;25.57;35.26
76853;BME280;65825;52.232;10.566;2023-06-19T00:15:59;100328.28;;;25.42;35.81
76853;BME280;65825;52.232;10.566;2023-06-19T00:18:25;100335.41;;;25.43;35.75
76853;BME280;65825;52.232;10.566;2023-06-19T00:20:50;100327.88;;;25.37;35.72
76853;BME280;65825;52.232;10.566;2023-06-19T00:23:15;100319.78;;;25.37;35.74
76853;BME280;65825;52.232;10.566;2023-06-19T00:25:41;100309.50;;;25.67;35.30
76853;BME280;65825;52.232;10.566;2023-06-19T00:28:08;100321.06;;;25.60;35.55
76853;BME280;65825;52.232;10.566;2023-06-19T00:30:37;100314.38;;;25.81;35.02
76853;BME280;65825;52.232;10.566;2023-06-19T00:33:02;100311.88;;;25.88;34.87
76853;BME280;65825;52.232;10.566;2023-06-19T00:35:27;100311.88;;;25.70;35.36
76853;BME280;65825;52.232;10.566;2023-06-19T00:37:52;100308.72;;;25.57;35.41
76853;BME280;65825;52.232;10.566;2023-06-19T00:40:26;100314.75;;;25.69;35.56
76853;BME280;65825;52.232;10.566;2023-06-19T00:42:51;100309.41;;;25.77;35.44
76853;BME280;65825;52.232;10.566;2023-06-19T00:45:16;100313.00;;;25.77;35.38
76853;BME280;65825;52.232;10.566;2023-06-19T00:47:44;100301.63;;;25.91;35.02
76853;BME280;65825;52.232;10.566;2023-06-19T00:50:10;100310.00;;;25.53;35.67
76853;BME280;65825;52.232;10.566;2023-06-19T00:52:36;100309.53;;;25.40;35.92
76853;BME280;65825;52.232;10.566;2023-06-19T00:55:01;100309.75;;;25.74;35.06
76853;BME280;65825;52.232;10.566;2023-06-19T00:57:28;100299.06;;;25.55;35.61
76853;BME280;65825;52.232;10.566;2023-06-19T00:59:53;100301.38;;;25.67;35.22
76853;BME280;65825;52.232;10.566;2023-06-19T01:02:19;100288.50;;;25.61;35.50
76853;BME280;65825;52.232;10.566;2023-06-19T01:04:51;100284.91;;;25.43;35.67
76853;BME280;65825;52.232;10.566;2023-06-19T01:07:23;100281.03;;;25.19;36.33
76853;BME280;65825;52.232;10.566;2023-06-19T01:09:55;100280.91;;;25.47;35.83
76853;BME280;65825;52.232;10.566;2023-06-19T01:12:30;100280.81;;;25.74;35.35
76853;BME280;65825;52.232;10.566;2023-06-19T01:14:59;100279.66;;;25.59;36.18
76853;BME280;65825;52.232;10.566;2023-06-19T01:17:29;100276.28;;;25.75;35.49
76853;BME280;65825;52.232;10.566;2023-06-19T01:19:55;100277.06;;;25.67;35.48
76853;BME280;65825;52.232;10.566;2023-06-19T01:22:26;100269.19;;;25.74;35.69
76853;BME280;65825;52.232;10.566;2023-06-19T01:24:51;100257.78;;;25.70;35.92
76853;BME280;65825;52.232;10.566;2023-06-19T01:27:17;100261.56;;;25.42;36.11
76853;BME280;65825;52.232;10.566;2023-06-19T01:29:42;100266.84;;;25.44;36.71
76853;BME280;65825;52.232;10.566;2023-06-19T01:32:10;100257.34;;;25.57;36.42
76853;BME280;65825;52.232;10.566;2023-06-19T01:34:36;100255.13;;;25.53;36.36
76853;BME280;65825;52.232;10.566;2023-06-19T01:37:03;100253.41;;;25.25;36.89
76853;BME280;65825;52.232;10.566;2023-06-19T01:39:31;100251.25;;;25.55;36.15
76853;BME280;65825;52.232;10.566;2023-06-19T01:41:58;100252.41;;;25.53;36.70
76853;BME280;65825;52.232;10.566;2023-06-19T01:44:24;100245.44;;;25.23;36.97
76853;BME280;65825;52.232;10.566;2023-06-19T01:46:49;100253.25;;;25.53;36.33
76853;BME280;65825;52.232;10.566;2023-06-19T01:49:16;100245.91;;;25.19;37.05
76853;BME280;65825;52.232;10.566;2023-06-19T01:51:41;100243.88;;;25.21;36.90
76853;BME280;65825;52.232;10.566;2023-06-19T01:54:06;100229.50;;;25.03;37.63
76853;BME280;65825;52.232;10.566;2023-06-19T01:56:32;100224.94;;;25.03;37.45
76853;BME280;65825;52.232;10.566;2023-06-19T01:58:58;100226.63;;;24.87;37.78
76853;BME280;65825;52.232;10.566;2023-06-19T02:01:23;100239.91;;;25.25;37.36
76853;BME280;65825;52.232;10.566;2023-06-19T02:03:48;100235.19;;;25.00;37.82
76853;BME280;65825;52.232;10.566;2023-06-19T02:06:14;100239.63;;;25.28;37.08
76853;BME280;65825;52.232;10.566;2023-06-19T02:08:39;100233.94;;;25.21;37.13
76853;BME280;65825;52.232;10.566;2023-06-19T02:11:04;100231.94;;;25.23;37.12
76853;BME280;65825;52.232;10.566;2023-06-19T02:13:29;100235.53;;;24.97;37.81
76853;BME280;65825;52.232;10.566;2023-06-19T02:15:55;100239.78;;;25.26;37.17
76853;BME280;65825;52.232;10.566;2023-06-19T02:18:20;100240.66;;;25.27;37.25
76853;BME280;65825;52.232;10.566;2023-06-19T02:20:45;100242.41;;;25.36;36.78
76853;BME280;65825;52.232;10.566;2023-06-19T02:23:10;100236.88;;;25.10;37.67
76853;BME280;65825;52.232;10.566;2023-06-19T02:25:36;100239.91;;;25.25;37.52
76853;BME280;65825;52.232;10.566;2023-06-19T02:28:01;100239.81;;;24.90;38.48
76853;BME280;65825;52.232;10.566;2023-06-19T02:30:26;100234.81;;;25.22;37.59
76853;BME280;65825;52.232;10.566;2023-06-19T02:32:52;100234.44;;;25.34;37.25
76853;BME280;65825;52.232;10.566;2023-06-19T02:35:17;100239.34;;;25.21;37.51
76853;BME280;65825;52.232;10.566;2023-06-19T02:37:42;100242.13;;;25.12;37.78
76853;BME280;65825;52.232;10.566;2023-06-19T02:40:08;100236.75;;;25.02;37.60
76853;BME280;65825;52.232;10.566;2023-06-19T02:42:35;100231.84;;;25.15;37.77
76853;BME280;65825;52.232;10.566;2023-06-19T02:45:00;100227.47;;;25.14;37.44
76853;BME280;65825;52.232;10.566;2023-06-19T02:47:34;100226.28;;;24.99;37.80
76853;BME280;65825;52.232;10.566;2023-06-19T02:50:00;100226.28;;;25.26;37.60
76853;BME280;65825;52.232;10.566;2023-06-19T02:52:26;100225.03;;;25.38;36.94
76853;BME280;65825;52.232;10.566;2023-06-19T02:54:52;100229.69;;;25.46;37.04
76853;BME280;65825;52.232;10.566;2023-06-19T02:57:17;100225.66;;;25.32;37.42
76853;BME280;65825;52.232;10.566;2023-06-19T02:59:42;100221.75;;;25.17;37.48
76853;BME280;65825;52.232;10.566;2023-06-19T03:02:08;100230.34;;;25.03;37.41
76853;BME280;65825;52.232;10.566;2023-06-19T03:04:33;100232.53;;;25.17;37.74
76853;BME280;65825;52.232;10.566;2023-06-19T03:06:58;100223.50;;;25.36;36.94
76853;BME280;65825;52.232;10.566;2023-06-19T03:09:23;100222.19;;;25.40;37.13
76853;BME280;65825;52.232;10.566;2023-06-19T03:11:49;100229.09;;;25.25;37.46
76853;BME280;65825;52.232;10.566;2023-06-19T03:14:16;100220.56;;;25.29;37.36
76853;BME280;65825;52.232;10.566;2023-06-19T03:16:41;100223.44;;;25.28;37.64
76853;BME280;65825;52.232;10.566;2023-06-19T03:19:07;100230.97;;;25.42;37.36
76853;BME280;65825;52.232;10.566;2023-06-19T03:21:32;100235.00;;;25.11;38.12
76853;BME280;65825;52.232;10.566;2023-06-19T03:23:57;100234.25;;;25.18;37.71
76853;BME280;65825;52.232;10.566;2023-06-19T03:26:23;100228.47;;;25.40;37.37
76853;BME280;65825;52.232;10.566;2023-06-19T03:28:49;100235.09;;;25.19;38.13
76853;BME280;65825;52.232;10.566;2023-06-19T03:31:15;100225.88;;;24.94;38.62
76853;BME280;65825;52.232;10.566;2023-06-19T03:33:40;100223.78;;;24.42;39.71
76853;BME280;65825;52.232;10.566;2023-06-19T03:36:05;100215.28;;;25.01;38.33
76853;BME280;65825;52.232;10.566;2023-06-19T03:38:31;100208.84;;;25.11;38.23
76853;BME280;65825;52.232;10.566;2023-06-19T03:40:56;100215.78;;;25.41;37.38
76853;BME280;65825;52.232;10.566;2023-06-19T03:43:21;100209.13;;;25.08;38.04
76853;BME280;65825;52.232;10.566;2023-06-19T03:45:47;100205.31;;;24.84;38.74
76853;BME280;65825;52.232;10.566;2023-06-19T03:48:12;100220.22;;;24.88;38.75
76853;BME280;65825;52.232;10.566;2023-06-19T03:50:37;100227.47;;;25.14;37.98
76853;BME280;65825;52.232;10.566;2023-06-19T03:53:03;100231.84;;;25.42;37.95
76853;BME280;65825;52.232;10.566;2023-06-19T03:55:28;100240.38;;;24.93;38.49
76853;BME280;65825;52.232;10.566;2023-06-19T03:57:53;100238.69;;;25.10;38.65
76853;BME280;65825;52.232;10.566;2023-06-19T04:00:18;100245.53;;;24.87;39.73
76853;BME280;65825;52.232;10.566;2023-06-19T04:02:44;100255.63;;;25.39;39.12
76853;BME280;65825;52.232;10.566;2023-06-19T04:05:14;100254.44;;;24.60;40.61
76853;BME280;65825;52.232;10.566;2023-06-19T04:07:40;100245.47;;;24.96;41.01
76853;BME280;65825;52.232;10.566;2023-06-19T04:10:05;100251.53;;;25.35;39.73
76853;BME280;65825;52.232;10.566;2023-06-19T04:12:31;100255.63;;;25.39;39.95
76853;BME280;65825;52.232;10.566;2023-06-19T04:14:56;100262.25;;;25.27;40.76
76853;BME280;65825;52.232;10.566;2023-06-19T04:17:21;100249.63;;;25.18;40.51
76853;BME280;65825;52.232;10.566;2023-06-19T04:19:46;100243.84;;;24.76;41.40
76853;BME280;65825;52.232;10.566;2023-06-19T04:22:12;100248.09;;;24.88;41.68
76853;BME280;65825;52.232;10.566;2023-06-19T04:24:37;100250.59;;;24.90;40.91
76853;BME280;65825;52.232;10.566;2023-06-19T04:27:02;100244.84;;;25.02;40.32
76853;BME280;65825;52.232;10.566;2023-06-19T04:29:27;100244.16;;;25.00;40.42
76853;BME280;65825;52.232;10.566;2023-06-19T04:32:00;100242.63;;;24.98;40.79
76853;BME280;65825;52.232;10.566;2023-06-19T04:34:28;100242.41;;;25.09;40.30
76853;BME280;65825;52.232;10.566;2023-06-19T04:36:53;100251.59;;;25.25;39.54
76853;BME280;65825;52.232;10.566;2023-06-19T04:39:18;100249.84;;;25.34;39.62
76853;BME280;65825;52.232;10.566;2023-06-19T04:41:44;100248.28;;;25.31;40.06
76853;BME280;65825;52.232;10.566;2023-06-19T04:44:12;100235.19;;;25.54;39.45
76853;BME280;65825;52.232;10.566;2023-06-19T04:46:38;100245.44;;;25.23;40.38
76853;BME280;65825;52.232;10.566;2023-06-19T04:49:03;100255.56;;;25.21;40.08
76853;BME280;65825;52.232;10.566;2023-06-19T04:51:30;100253.75;;;25.12;40.44
76853;BME280;65825;52.232;10.566;2023-06-19T04:53:57;100255.28;;;25.24;40.37
76853;BME280;65825;52.232;10.566;2023-06-19T04:56:23;100260.97;;;25.21;40.79
76853;BME280;65825;52.232;10.566;2023-06-19T04:58:48;100267.84;;;25.43;39.69
76853;BME280;65825;52.232;10.566;2023-06-19T05:01:15;100273.25;;;25.43;39.76
76853;BME280;65825;52.232;10.566;2023-06-19T05:03:41;100269.84;;;25.41;40.16
76853;BME280;65825;52.232;10.566;2023-06-19T05:06:07;100279.81;;;25.40;40.23
76853;BME280;65825;52.232;10.566;2023-06-19T05:08:32;100275.31;;;25.31;40.59
76853;BME280;65825;52.232;10.566;2023-06-19T05:10:57;100266.47;;;25.02;41.88
76853;BME280;65825;52.232;10.566;2023-06-19T05:13:23;100274.97;;;25.07;42.22
76853;BME280;65825;52.232;10.566;2023-06-19T05:15:49;100267.66;;;25.17;42.17
76853;BME280;65825;52.232;10.566;2023-06-19T05:18:15;100279.34;;;24.91;43.33
76853;BME280;65825;52.232;10.566;2023-06-19T05:20:41;100273.31;;;24.70;44.00
76853;BME280;65825;52.232;10.566;2023-06-19T05:23:06;100270.38;;;25.17;43.35
76853;BME280;65825;52.232;10.566;2023-06-19T05:25:31;100270.91;;;24.57;45.00
76853;BME280;65825;52.232;10.566;2023-06-19T05:27:56;100263.25;;;24.62;44.67
76853;BME280;65825;52.232;10.566;2023-06-19T05:30:21;100257.94;;;24.70;44.05
76853;BME280;65825;52.232;10.566;2023-06-19T05:32:47;100269.03;;;24.58;44.10
76853;BME280;65825;52.232;10.566;2023-06-19T05:35:12;100270.63;;;24.97;43.56
76853;BME280;65825;52.232;10.566;2023-06-19T05:37:37;100272.25;;;24.80;43.37
76853;BME280;65825;52.232;10.566;2023-06-19T05:40:04;100270.63;;;24.51;44.38
76853;BME280;65825;52.232;10.566;2023-06-19T05:42:30;100273.78;;;24.37;45.21
76853;BME280;65825;52.232;10.566;2023-06-19T05:44:56;100259.66;;;24.71;44.50
76853;BME280;65825;52.232;10.566;2023-06-19T05:47:21;100251.22;;;24.84;44.62
76853;BME280;65825;52.232;10.566;2023-06-19T05:49:49;100246.75;;;24.65;45.00
76853;BME280;65825;52.232;10.566;2023-06-19T05:52:14;100261.78;;;24.68;45.47
76853;BME280;65825;52.232;10.566;2023-06-19T05:54:40;100260.88;;;24.31;46.37
76853;BME280;65825;52.232;10.566;2023-06-19T05:57:05;100253.50;;;24.79;45.80
76853;BME280;65825;52.232;10.566;2023-06-19T05:59:31;100268.28;;;24.29;46.10
76853;BME280;65825;52.232;10.566;2023-06-19T06:01:56;100278.19;;;24.93;45.61
76853;BME280;65825;52.232;10.566;2023-06-19T06:04:21;100283.72;;;24.46;46.89
76853;BME280;65825;52.232;10.566;2023-06-19T06:06:47;100290.44;;;24.32;48.68
76853;BME280;65825;52.232;10.566;2023-06-19T06:09:12;100302.88;;;24.62;47.29
76853;BME280;65825;52.232;10.566;2023-06-19T06:11:38;100300.69;;;24.84;46.76
76853;BME280;65825;52.232;10.566;2023-06-19T06:14:03;100309.41;;;25.05;45.93
76853;BME280;65825;52.232;10.566;2023-06-19T06:16:28;100308.41;;;25.06;46.33
76853;BME280;65825;52.232;10.566;2023-06-19T06:18:53;100304.56;;;25.36;45.19
76853;BME280;65825;52.232;10.566;2023-06-19T06:21:19;100299.34;;;24.98;45.11
76853;BME280;65825;52.232;10.566;2023-06-19T06:23:46;100307.38;;;25.44;44.95
76853;BME280;65825;52.232;10.566;2023-06-19T06:26:13;100314.09;;;25.40;45.19
76853;BME280;65825;52.232;10.566;2023-06-19T06:28:38;100305.09;;;25.66;43.70
76853;BME280;65825;52.232;10.566;2023-06-19T06:31:04;100303.94;;;25.69;45.37
76853;BME280;65825;52.232;10.566;2023-06-19T06:33:29;100300.63;;;25.75;45.55
76853;BME280;65825;52.232;10.566;2023-06-19T06:35:55;100318.06;;;26.07;45.01
76853;BME280;65825;52.232;10.566;2023-06-19T06:38:20;100325.41;;;25.88;46.11
76853;BME280;65825;52.232;10.566;2023-06-19T06:40:45;100323.53;;;26.15;45.72
76853;BME280;65825;52.232;10.566;2023-06-19T06:43:11;100324.06;;;26.19;45.90
76853;BME280;65825;52.232;10.566;2023-06-19T06:45:36;100329.56;;;26.52;46.26
76853;BME280;65825;52.232;10.566;2023-06-19T06:48:07;100318.88;;;26.68;45.00
76853;BME280;65825;52.232;10.566;2023-06-19T06:50:32;100315.72;;;26.73;44.39
76853;BME280;65825;52.232;10.566;2023-06-19T06:52:57;100325.31;;;26.67;44.96
76853;BME280;65825;52.232;10.566;2023-06-19T06:55:23;100320.06;;;26.91;45.16
76853;BME280;65825;52.232;10.566;2023-06-19T06:57:48;100331.56;;;26.93;43.66
76853;BME280;65825;52.232;10.566;2023-06-19T07:00:13;100319.63;;;27.12;42.55
76853;BME280;65825;52.232;10.566;2023-06-19T07:02:39;100319.72;;;27.20;41.29
76853;BME280;65825;52.232;10.566;2023-06-19T07:05:08;100320.97;;;27.33;41.23
76853;BME280;65825;52.232;10.566;2023-06-19T07:07:33;100323.88;;;26.55;43.24
76853;BME280;65825;52.232;10.566;2023-06-19T07:09:59;100328.75;;;27.03;41.79
76853;BME280;65825;52.232;10.566;2023-06-19T07:12:24;100334.69;;;27.32;41.41
76853;BME280;65825;52.232;10.566;2023-06-19T07:14:52;100325.31;;;27.68;41.08
76853;BME280;65825;52.232;10.566;2023-06-19T07:17:18;100329.97;;;27.91;41.10
76853;BME280;65825;52.232;10.566;2023-06-19T07:19:43;100338.78;;;27.85;40.29
76853;BME280;65825;52.232;10.566;2023-06-19T07:22:08;100344.59;;;28.22;40.38
76853;BME280;65825;52.232;10.566;2023-06-19T07:24:33;100338.34;;;28.46;39.70
76853;BME280;65825;52.232;10.566;2023-06-19T07:27:01;100339.38;;;28.69;39.31
76853;BME280;65825;52.232;10.566;2023-06-19T07:29:26;100337.69;;;28.44;39.54
76853;BME280;65825;52.232;10.566;2023-06-19T07:31:52;100334.25;;;29.75;38.01
76853;BME280;65825;52.232;10.566;2023-06-19T07:34:17;100346.38;;;29.26;37.61
76853;BME280;65825;52.232;10.566;2023-06-19T07:36:43;100347.25;;;29.65;37.29
76853;BME280;65825;52.232;10.566;2023-06-19T07:39:08;100348.41;;;29.32;37.64
76853;BME280;65825;52.232;10.566;2023-06-19T07:41:33;100342.28;;;29.68;37.20
76853;BME280;65825;52.232;10.566;2023-06-19T07:43:58;100339.78;;;29.89;37.02
76853;BME280;65825;52.232;10.566;2023-06-19T07:46:24;100339.09;;;30.40;35.32
76853;BME280;65825;52.232;10.566;2023-06-19T07:48:49;100335.13;;;29.75;37.19
76853;BME280;65825;52.232;10.566;2023-06-19T07:51:14;100337.66;;;29.38;37.34
76853;BME280;65825;52.232;10.566;2023-06-19T07:53:39;100341.97;;;29.63;37.22
76853;BME280;65825;52.232;10.566;2023-06-19T07:56:05;100341.06;;;30.46;35.76
76853;BME280;65825;52.232;10.566;2023-06-19T07:58:30;100337.63;;;31.18;34.51
76853;BME280;65825;52.232;10.566;2023-06-19T08:00:56;100337.25;;;30.92;35.29
76853;BME280;65825;52.232;10.566;2023-06-19T08:03:21;100335.56;;;30.54;35.71
76853;BME280;65825;52.232;10.566;2023-06-19T08:05:47;100332.91;;;30.01;36.03
76853;BME280;65825;52.232;10.566;2023-06-19T08:08:13;100330.38;;;30.00;36.74
76853;BME280;65825;52.232;10.566;2023-06-19T08:10:38;100329.50;;;29.77;38.01
76853;BME280;65825;52.232;10.566;2023-06-19T08:13:04;100322.06;;;30.24;37.33
76853;BME280;65825;52.232;10.566;2023-06-19T08:15:29;100321.31;;;30.30;35.98
76853;BME280;65825;52.232;10.566;2023-06-19T08:17:54;100325.06;;;29.37;37.56
76853;BME280;65825;52.232;10.566;2023-06-19T08:20:20;100326.28;;;30.63;36.13
76853;BME280;65825;52.232;10.566;2023-06-19T08:22:45;100330.47;;;31.61;34.48
76853;BME280;65825;52.232;10.566;2023-06-19T08:25:11;100336.84;;;32.39;34.08
76853;BME280;65825;52.232;10.566;2023-06-19T08:27:37;100323.34;;;31.95;33.52
76853;BME280;65825;52.232;10.566;2023-06-19T08:30:02;100337.66;;;32.33;33.54
76853;BME280;65825;52.232;10.566;2023-06-19T08:32:28;100346.28;;;32.36;32.65
76853;BME280;65825;52.232;10.566;2023-06-19T08:34:53;100340.25;;;32.89;32.44
76853;BME280;65825;52.232;10.566;2023-06-19T08:37:18;100338.16;;;33.25;32.42
76853;BME280;65825;52.232;10.566;2023-06-19T08:39:44;100334.47;;;33.80;31.79
76853;BME280;65825;52.232;10.566;2023-06-19T08:42:09;100334.13;;;34.02;30.42
76853;BME280;65825;52.232;10.566;2023-06-19T08:44:35;100334.13;;;34.09;31.00
76853;BME280;65825;52.232;10.566;2023-06-19T08:47:02;100334.22;;;34.41;31.85
76853;BME280;65825;52.232;10.566;2023-06-19T08:49:29;100332.38;;;35.57;30.17
76853;BME280;65825;52.232;10.566;2023-06-19T08:51:55;100330.59;;;35.89;29.60
76853;BME280;65825;52.232;10.566;2023-06-19T08:54:20;100333.47;;;35.50;28.59
76853;BME280;65825;52.232;10.566;2023-06-19T08:56:46;100333.66;;;36.05;28.54
76853;BME280;65825;52.232;10.566;2023-06-19T08:59:14;100337.72;;;35.46;28.79
76853;BME280;65825;52.232;10.566;2023-06-19T09:01:45;100334.09;;;36.02;27.93
76853;BME280;65825;52.232;10.566;2023-06-19T09:04:17;100322.84;;;36.10;28.22
76853;BME280;65825;52.232;10.566;2023-06-19T09:06:50;100328.75;;;36.14;27.80
76853;BME280;65825;52.232;10.566;2023-06-19T09:09:16;100336.72;;;35.21;27.25
76853;BME280;65825;52.232;10.566;2023-06-19T09:11:42;100341.16;;;36.23;26.57
76853;BME280;65825;52.232;10.566;2023-06-19T09:14:09;100342.78;;;36.37;26.04
76853;BME280;65825;52.232;10.566;2023-06-19T09:16:40;100337.66;;;38.04;25.16
76853;BME280;65825;52.232;10.566;2023-06-19T09:19:06;100343.22;;;39.09;22.42
76853;BME280;65825;52.232;10.566;2023-06-19T09:21:32;100342.97;;;37.87;23.25
76853;BME280;65825;52.232;10.566;2023-06-19T09:24:07;100343.59;;;36.93;24.66
76853;BME280;65825;52.232;10.566;2023-06-19T09:26:33;100339.75;;;36.45;25.16
76853;BME280;65825;52.232;10.566;2023-06-19T09:29:12;100337.22;;;40.14;21.55
76853;BME280;65825;52.232;10.566;2023-06-19T09:31:38;100338.22;;;44.64;16.66
76853;BME280;65825;52.232;10.566;2023-06-19T09:34:04;100335.59;;;44.12;16.49
76853;BME280;65825;52.232;10.566;2023-06-19T09:36:31;100343.50;;;45.25;15.83
76853;BME280;65825;52.232;10.566;2023-06-19T09:38:57;100329.22;;;42.99;17.86
76853;BME280;65825;52.232;10.566;2023-06-19T09:41:23;100331.31;;;40.22;20.78
76853;BME280;65825;52.232;10.566;2023-06-19T09:43:53;100324.94;;;41.80;18.82
76853;BME280;65825;52.232;10.566;2023-06-19T09:46:20;100326.78;;;40.32;19.96
76853;BME280;65825;52.232;10.566;2023-06-19T09:48:47;100324.34;;;38.94;22.07
76853;BME280;65825;52.232;10.566;2023-06-19T09:51:19;100321.59;;;38.01;22.51
76853;BME280;65825;52.232;10.566;2023-06-19T09:53:47;100325.81;;;38.03;22.94
76853;BME280;65825;52.232;10.566;2023-06-19T09:56:13;100322.63;;;37.70;23.18
76853;BME280;65825;52.232;10.566;2023-06-19T09:58:40;100325.69;;;37.44;23.42
76853;BME280;65825;52.232;10.566;2023-06-19T10:01:07;100320.38;;;37.07;25.07
76853;BME280;65825;52.232;10.566;2023-06-19T10:03:33;100326.38;;;36.24;25.39
76853;BME280;65825;52.232;10.566;2023-06-19T10:06:00;100314.94;;;37.00;25.30
76853;BME280;65825;52.232;10.566;2023-06-19T10:08:31;100309.75;;;36.68;24.19
76853;BME280;65825;52.232;10.566;2023-06-19T10:10:56;100322.19;;;36.95;24.30
76853;BME280;65825;52.232;10.566;2023-06-19T10:13:33;100327.72;;;36.64;24.64
76853;BME280;65825;52.232;10.566;2023-06-19T10:15:59;100325.34;;;36.74;24.47
76853;BME280;65825;52.232;10.566;2023-06-19T10:18:24;100321.25;;;36.83;24.30
76853;BME280;65825;52.232;10.566;2023-06-19T10:20:51;100329.66;;;37.12;24.16
76853;BME280;65825;52.232;10.566;2023-06-19T10:23:18;100329.28;;;36.60;24.64
76853;BME280;65825;52.232;10.566;2023-06-19T10:25:56;100330.47;;;37.55;24.26
76853;BME280;65825;52.232;10.566;2023-06-19T10:28:27;100334.97;;;36.65;24.01
76853;BME280;65825;52.232;10.566;2023-06-19T10:33:26;100328.50;;;36.46;23.35
76853;BME280;65825;52.232;10.566;2023-06-19T10:35:51;100325.34;;;36.12;24.37
76853;BME280;65825;52.232;10.566;2023-06-19T10:38:19;100333.72;;;35.42;24.53
76853;BME280;65825;52.232;10.566;2023-06-19T10:40:45;100339.03;;;35.37;25.08
76853;BME280;65825;52.232;10.566;2023-06-19T10:43:11;100339.72;;;34.80;25.63
76853;BME280;65825;52.232;10.566;2023-06-19T10:45:36;100342.00;;;35.16;24.61
76853;BME280;65825;52.232;10.566;2023-06-19T10:48:03;100337.66;;;35.59;24.92
76853;BME280;65825;52.232;10.566;2023-06-19T10:50:29;100346.69;;;35.79;24.77
76853;BME280;65825;52.232;10.566;2023-06-19T10:52:54;100347.06;;;35.32;25.57
76853;BME280;65825;52.232;10.566;2023-06-19T10:55:22;100344.13;;;34.62;26.80
76853;BME280;65825;52.232;10.566;2023-06-19T10:57:49;100343.91;;;35.15;25.49
76853;BME280;65825;52.232;10.566;2023-06-19T11:00:27;100336.81;;;35.71;25.20
76853;BME280;65825;52.232;10.566;2023-06-19T11:02:53;100335.38;;;36.37;24.61
76853;BME280;65825;52.232;10.566;2023-06-19T11:05:22;100325.81;;;36.09;25.27
76853;BME280;65825;52.232;10.566;2023-06-19T11:07:55;100340.41;;;36.40;24.42
76853;BME280;65825;52.232;10.566;2023-06-19T11:10:24;100331.28;;;35.78;26.12
76853;BME280;65825;52.232;10.566;2023-06-19T11:12:52;100324.81;;;35.46;25.43
76853;BME280;65825;52.232;10.566;2023-06-19T11:15:18;100329.94;;;35.36;25.98
76853;BME280;65825;52.232;10.566;2023-06-19T11:17:43;100329.53;;;35.26;26.19
76853;BME280;65825;52.232;10.566;2023-06-19T11:20:13;100332.97;;;35.02;26.48
76853;BME280;65825;52.232;10.566;2023-06-19T11:22:41;100325.13;;;35.06;26.60
76853;BME280;65825;52.232;10.566;2023-06-19T11:25:08;100321.69;;;35.30;26.06
76853;BME280;65825;52.232;10.566;2023-06-19T11:27:37;100325.28;;;34.13;26.68
76853;BME280;65825;52.232;10.566;2023-06-19T11:30:03;100318.53;;;35.39;26.54
76853;BME280;65825;52.232;10.566;2023-06-19T11:32:34;100315.56;;;35.91;24.79
76853;BME280;65825;52.232;10.566;2023-06-19T11:35:07;100318.94;;;35.36;25.86
76853;BME280;65825;52.232;10.566;2023-06-19T11:37:33;100325.69;;;35.91;25.79
76853;BME280;65825;52.232;10.566;2023-06-19T11:39:59;100328.25;;;35.86;26.04
76853;BME280;65825;52.232;10.566;2023-06-19T11:42:24;100329.56;;;36.14;25.35
76853;BME280;65825;52.232;10.566;2023-06-19T11:44:59;100331.16;;;35.47;26.60
76853;BME280;65825;52.232;10.566;2023-06-19T11:47:29;100328.09;;;34.98;26.63
76853;BME280;65825;52.232;10.566;2023-06-19T11:49:55;100337.28;;;35.99;26.26
76853;BME280;65825;52.232;10.566;2023-06-19T11:52:20;100328.56;;;35.71;26.03
76853;BME280;65825;52.232;10.566;2023-06-19T11:54:45;100327.91;;;36.07;26.35
76853;BME280;65825;52.232;10.566;2023-06-19T11:57:14;100323.94;;;36.89;24.80
76853;BME280;65825;52.232;10.566;2023-06-19T11:59:40;100324.88;;;37.01;25.86
76853;BME280;65825;52.232;10.566;2023-06-19T12:02:06;100327.97;;;36.00;26.52
76853;BME280;65825;52.232;10.566;2023-06-19T12:04:31;100330.47;;;36.08;25.81
76853;BME280;65825;52.232;10.566;2023-06-19T12:06:56;100332.06;;;36.29;26.90
76853;BME280;65825;52.232;10.566;2023-06-19T12:09:22;100334.06;;;36.09;26.77
76853;BME280;65825;52.232;10.566;2023-06-19T12:11:47;100339.78;;;36.69;25.86
76853;BME280;65825;52.232;10.566;2023-06-19T12:14:15;100335.88;;;36.83;26.49
76853;BME280;65825;52.232;10.566;2023-06-19T12:16:40;100337.03;;;36.69;26.76
76853;BME280;65825;52.232;10.566;2023-06-19T12:19:05;100331.63;;;36.25;27.46
76853;BME280;65825;52.232;10.566;2023-06-19T12:21:31;100329.53;;;35.83;27.61
76853;BME280;65825;52.232;10.566;2023-06-19T12:23:56;100326.72;;;37.07;27.15
76853;BME280;65825;52.232;10.566;2023-06-19T12:26:21;100336.41;;;36.92;26.00
76853;BME280;65825;52.232;10.566;2023-06-19T12:28:50;100334.19;;;37.61;25.57
76853;BME280;65825;52.232;10.566;2023-06-19T12:31:15;100337.00;;;37.18;26.94
76853;BME280;65825;52.232;10.566;2023-06-19T12:33:40;100340.31;;;37.45;26.02
76853;BME280;65825;52.232;10.566;2023-06-19T12:36:10;100332.47;;;37.78;25.41
76853;BME280;65825;52.232;10.566;2023-06-19T12:38:38;100337.88;;;36.08;27.44